sensor_id;sensor_type;location;lat;lon;timestamp;P1;durP1;ratioP1;P2;durP2;ratioP2
64957;SDS011;51486;50.232;19.208;2022-11-04T00:01:15;13.80;;;4.77;;
64957;SDS011;51486;50.232;19.208;2022-11-04T00:03:41;19.30;;;5.50;;
64957;SDS011;51486;50.232;19.208;2022-11-04T00:06:07;14.83;;;6.00;;
64957;SDS011;51486;50.232;19.208;2022-11-04T00:08:32;18.03;;;5.37;;
64957;SDS011;51486;50.232;19.208;2022-11-04T00:10:58;21.03;;;5.63;;
64957;SDS011;51486;50.232;19.208;2022-11-04T00:13:43;11.73;;;5.47;;
64957;SDS011;51486;50.232;19.208;2022-11-04T00:16:09;10.67;;;4.80;;
64957;SDS011;51486;50.232;19.208;2022-11-04T00:18:53;14.50;;;5.43;;
64957;SDS011;51486;50.232;19.208;2022-11-04T00:21:19;11.80;;;4.97;;
64957;SDS011;51486;50.232;19.208;2022-11-04T00:24:03;10.90;;;4.77;;
64957;SDS011;51486;50.232;19.208;2022-11-04T00:26:48;11.93;;;5.40;;
64957;SDS011;51486;50.232;19.208;2022-11-04T00:29:32;11.33;;;5.30;;
64957;SDS011;51486;50.232;19.208;2022-11-04T00:31:57;12.83;;;5.27;;
64957;SDS011;51486;50.232;19.208;2022-11-04T00:34:41;14.87;;;6.50;;
64957;SDS011;51486;50.232;19.208;2022-11-04T00:37:06;11.97;;;5.40;;
64957;SDS011;51486;50.232;19.208;2022-11-04T00:39:32;14.63;;;5.67;;
64957;SDS011;51486;50.232;19.208;2022-11-04T00:41:57;9.53;;;5.80;;
64957;SDS011;51486;50.232;19.208;2022-11-04T00:44:23;10.67;;;5.67;;
64957;SDS011;51486;50.232;19.208;2022-11-04T00:46:48;12.37;;;5.73;;
64957;SDS011;51486;50.232;19.208;2022-11-04T00:49:13;13.77;;;6.80;;
64957;SDS011;51486;50.232;19.208;2022-11-04T00:51:39;19.77;;;8.00;;
64957;SDS011;51486;50.232;19.208;2022-11-04T00:54:04;15.90;;;7.00;;
64957;SDS011;51486;50.232;19.208;2022-11-04T00:56:30;13.80;;;6.77;;
64957;SDS011;51486;50.232;19.208;2022-11-04T00:58:57;27.63;;;6.97;;
64957;SDS011;51486;50.232;19.208;2022-11-04T01:01:23;12.80;;;6.50;;
64957;SDS011;51486;50.232;19.208;2022-11-04T01:03:50;15.73;;;5.67;;
64957;SDS011;51486;50.232;19.208;2022-11-04T01:06:17;21.07;;;8.10;;
64957;SDS011;51486;50.232;19.208;2022-11-04T01:08:44;23.50;;;9.17;;
64957;SDS011;51486;50.232;19.208;2022-11-04T01:11:10;17.23;;;7.87;;
64957;SDS011;51486;50.232;19.208;2022-11-04T01:13:36;14.50;;;8.00;;
64957;SDS011;51486;50.232;19.208;2022-11-04T01:16:03;20.07;;;8.77;;
64957;SDS011;51486;50.232;19.208;2022-11-04T01:18:31;24.03;;;9.90;;
64957;SDS011;51486;50.232;19.208;2022-11-04T01:20:59;19.97;;;7.50;;
64957;SDS011;51486;50.232;19.208;2022-11-04T01:23:25;15.23;;;7.23;;
64957;SDS011;51486;50.232;19.208;2022-11-04T01:25:50;14.17;;;7.10;;
64957;SDS011;51486;50.232;19.208;2022-11-04T01:28:16;16.87;;;7.47;;
64957;SDS011;51486;50.232;19.208;2022-11-04T01:30:41;17.50;;;7.40;;
64957;SDS011;51486;50.232;19.208;2022-11-04T01:33:07;14.93;;;6.87;;
64957;SDS011;51486;50.232;19.208;2022-11-04T01:35:32;15.90;;;6.37;;
64957;SDS011;51486;50.232;19.208;2022-11-04T01:37:57;13.73;;;6.07;;
64957;SDS011;51486;50.232;19.208;2022-11-04T01:40:23;10.73;;;6.13;;
64957;SDS011;51486;50.232;19.208;2022-11-04T01:42:48;9.03;;;4.83;;
64957;SDS011;51486;50.232;19.208;2022-11-04T01:45:15;15.13;;;5.60;;
64957;SDS011;51486;50.232;19.208;2022-11-04T01:47:42;9.93;;;4.67;;
64957;SDS011;51486;50.232;19.208;2022-11-04T01:50:14;10.93;;;5.40;;
64957;SDS011;51486;50.232;19.208;2022-11-04T01:52:44;16.33;;;5.77;;
64957;SDS011;51486;50.232;19.208;2022-11-04T01:55:17;15.73;;;6.13;;
64957;SDS011;51486;50.232;19.208;2022-11-04T01:57:46;9.87;;;5.50;;
64957;SDS011;51486;50.232;19.208;2022-11-04T02:00:13;14.73;;;4.70;;
64957;SDS011;51486;50.232;19.208;2022-11-04T02:02:45;12.80;;;5.27;;
64957;SDS011;51486;50.232;19.208;2022-11-04T02:05:15;14.33;;;6.30;;
64957;SDS011;51486;50.232;19.208;2022-11-04T02:07:41;17.47;;;6.33;;
64957;SDS011;51486;50.232;19.208;2022-11-04T02:10:06;13.27;;;5.67;;
64957;SDS011;51486;50.232;19.208;2022-11-04T02:12:32;14.87;;;6.10;;
64957;SDS011;51486;50.232;19.208;2022-11-04T02:15:29;16.83;;;6.40;;
64957;SDS011;51486;50.232;19.208;2022-11-04T02:23:46;8.23;;;4.30;;
64957;SDS011;51486;50.232;19.208;2022-11-04T02:37:53;12.30;;;4.97;;
64957;SDS011;51486;50.232;19.208;2022-11-04T02:42:38;9.03;;;4.20;;
64957;SDS011;51486;50.232;19.208;2022-11-04T02:45:25;6.87;;;3.97;;
64957;SDS011;51486;50.232;19.208;2022-11-04T02:47:55;12.93;;;4.60;;
64957;SDS011;51486;50.232;19.208;2022-11-04T02:50:30;9.13;;;5.13;;
64957;SDS011;51486;50.232;19.208;2022-11-04T02:53:01;9.17;;;5.20;;
64957;SDS011;51486;50.232;19.208;2022-11-04T02:55:45;16.43;;;5.70;;
64957;SDS011;51486;50.232;19.208;2022-11-04T02:58:15;9.50;;;5.13;;
64957;SDS011;51486;50.232;19.208;2022-11-04T03:00:45;9.83;;;4.60;;
64957;SDS011;51486;50.232;19.208;2022-11-04T03:03:18;9.10;;;4.50;;
64957;SDS011;51486;50.232;19.208;2022-11-04T03:05:47;11.53;;;4.77;;
64957;SDS011;51486;50.232;19.208;2022-11-04T03:08:57;7.50;;;4.27;;
64957;SDS011;51486;50.232;19.208;2022-11-04T03:11:16;12.00;;;5.63;;
64957;SDS011;51486;50.232;19.208;2022-11-04T03:13:51;12.27;;;4.40;;
64957;SDS011;51486;50.232;19.208;2022-11-04T03:16:44;9.90;;;4.57;;
64957;SDS011;51486;50.232;19.208;2022-11-04T03:19:15;11.07;;;4.93;;
64957;SDS011;51486;50.232;19.208;2022-11-04T03:21:54;7.77;;;4.13;;
64957;SDS011;51486;50.232;19.208;2022-11-04T03:24:25;10.07;;;4.93;;
64957;SDS011;51486;50.232;19.208;2022-11-04T03:26:54;7.27;;;4.60;;
64957;SDS011;51486;50.232;19.208;2022-11-04T03:34:46;13.73;;;4.53;;
64957;SDS011;51486;50.232;19.208;2022-11-04T03:37:11;6.60;;;3.43;;
64957;SDS011;51486;50.232;19.208;2022-11-04T03:39:37;10.63;;;4.70;;
64957;SDS011;51486;50.232;19.208;2022-11-04T03:42:04;6.70;;;4.27;;
64957;SDS011;51486;50.232;19.208;2022-11-04T03:44:53;6.27;;;3.60;;
64957;SDS011;51486;50.232;19.208;2022-11-04T03:47:21;9.30;;;4.67;;
64957;SDS011;51486;50.232;19.208;2022-11-04T03:49:48;6.60;;;3.60;;
64957;SDS011;51486;50.232;19.208;2022-11-04T03:52:16;9.93;;;4.23;;
64957;SDS011;51486;50.232;19.208;2022-11-04T03:54:43;7.17;;;3.43;;
64957;SDS011;51486;50.232;19.208;2022-11-04T03:57:16;6.37;;;3.77;;
64957;SDS011;51486;50.232;19.208;2022-11-04T04:00:09;9.97;;;3.97;;
64957;SDS011;51486;50.232;19.208;2022-11-04T04:05:10;8.63;;;3.80;;
64957;SDS011;51486;50.232;19.208;2022-11-04T04:07:43;6.83;;;3.43;;
64957;SDS011;51486;50.232;19.208;2022-11-04T04:10:13;6.50;;;3.47;;
64957;SDS011;51486;50.232;19.208;2022-11-04T04:12:59;7.60;;;3.73;;
64957;SDS011;51486;50.232;19.208;2022-11-04T04:15:29;10.77;;;3.67;;
64957;SDS011;51486;50.232;19.208;2022-11-04T04:18:02;11.43;;;4.67;;
64957;SDS011;51486;50.232;19.208;2022-11-04T04:20:31;13.73;;;6.43;;
64957;SDS011;51486;50.232;19.208;2022-11-04T04:23:04;15.53;;;6.57;;
64957;SDS011;51486;50.232;19.208;2022-11-04T04:25:51;21.13;;;9.00;;
64957;SDS011;51486;50.232;19.208;2022-11-04T04:28:37;26.13;;;7.73;;
64957;SDS011;51486;50.232;19.208;2022-11-04T04:31:03;16.37;;;7.20;;
64957;SDS011;51486;50.232;19.208;2022-11-04T04:33:30;15.47;;;6.77;;
64957;SDS011;51486;50.232;19.208;2022-11-04T04:35:55;19.90;;;7.93;;
64957;SDS011;51486;50.232;19.208;2022-11-04T04:38:22;14.17;;;6.87;;
64957;SDS011;51486;50.232;19.208;2022-11-04T04:41:26;19.00;;;7.20;;
64957;SDS011;51486;50.232;19.208;2022-11-04T04:44:14;18.50;;;6.03;;
64957;SDS011;51486;50.232;19.208;2022-11-04T04:47:04;17.33;;;6.57;;
64957;SDS011;51486;50.232;19.208;2022-11-04T04:49:30;15.57;;;4.77;;
64957;SDS011;51486;50.232;19.208;2022-11-04T04:51:59;20.27;;;5.97;;
64957;SDS011;51486;50.232;19.208;2022-11-04T04:54:26;10.53;;;4.87;;
64957;SDS011;51486;50.232;19.208;2022-11-04T04:56:51;11.00;;;4.77;;
64957;SDS011;51486;50.232;19.208;2022-11-04T04:59:17;13.73;;;4.97;;
64957;SDS011;51486;50.232;19.208;2022-11-04T05:01:42;7.93;;;4.70;;
64957;SDS011;51486;50.232;19.208;2022-11-04T05:04:07;15.57;;;5.93;;
64957;SDS011;51486;50.232;19.208;2022-11-04T05:06:33;15.10;;;5.87;;
64957;SDS011;51486;50.232;19.208;2022-11-04T05:08:58;10.10;;;4.90;;
64957;SDS011;51486;50.232;19.208;2022-11-04T05:11:23;11.70;;;4.73;;
64957;SDS011;51486;50.232;19.208;2022-11-04T05:13:49;20.13;;;6.27;;
64957;SDS011;51486;50.232;19.208;2022-11-04T05:16:14;13.60;;;6.20;;
64957;SDS011;51486;50.232;19.208;2022-11-04T05:18:39;15.40;;;5.93;;
64957;SDS011;51486;50.232;19.208;2022-11-04T05:21:06;14.80;;;5.07;;
64957;SDS011;51486;50.232;19.208;2022-11-04T05:23:33;20.07;;;6.53;;
64957;SDS011;51486;50.232;19.208;2022-11-04T05:25:59;19.23;;;6.13;;
64957;SDS011;51486;50.232;19.208;2022-11-04T05:28:24;12.90;;;5.57;;
64957;SDS011;51486;50.232;19.208;2022-11-04T05:30:49;19.93;;;6.87;;
64957;SDS011;51486;50.232;19.208;2022-11-04T05:33:15;20.83;;;8.37;;
64957;SDS011;51486;50.232;19.208;2022-11-04T05:35:40;40.13;;;8.10;;
64957;SDS011;51486;50.232;19.208;2022-11-04T05:38:06;14.60;;;7.23;;
64957;SDS011;51486;50.232;19.208;2022-11-04T05:40:31;29.40;;;7.10;;
64957;SDS011;51486;50.232;19.208;2022-11-04T05:43:00;14.13;;;6.53;;
64957;SDS011;51486;50.232;19.208;2022-11-04T05:45:26;11.83;;;5.77;;
64957;SDS011;51486;50.232;19.208;2022-11-04T05:48:02;18.03;;;8.13;;
64957;SDS011;51486;50.232;19.208;2022-11-04T05:50:29;19.60;;;8.20;;
64957;SDS011;51486;50.232;19.208;2022-11-04T05:52:59;20.77;;;8.10;;
64957;SDS011;51486;50.232;19.208;2022-11-04T05:55:25;18.47;;;7.23;;
64957;SDS011;51486;50.232;19.208;2022-11-04T05:57:51;15.40;;;6.77;;
64957;SDS011;51486;50.232;19.208;2022-11-04T06:00:17;18.73;;;7.27;;
64957;SDS011;51486;50.232;19.208;2022-11-04T06:02:43;13.43;;;6.13;;
64957;SDS011;51486;50.232;19.208;2022-11-04T06:05:08;19.30;;;6.50;;
64957;SDS011;51486;50.232;19.208;2022-11-04T06:07:34;16.97;;;6.83;;
64957;SDS011;51486;50.232;19.208;2022-11-04T06:09:59;11.20;;;5.03;;
64957;SDS011;51486;50.232;19.208;2022-11-04T06:12:25;21.93;;;6.57;;
64957;SDS011;51486;50.232;19.208;2022-11-04T06:14:50;19.80;;;7.03;;
64957;SDS011;51486;50.232;19.208;2022-11-04T06:17:17;23.23;;;6.80;;
64957;SDS011;51486;50.232;19.208;2022-11-04T06:19:44;10.10;;;5.60;;
64957;SDS011;51486;50.232;19.208;2022-11-04T06:22:12;14.90;;;5.97;;
64957;SDS011;51486;50.232;19.208;2022-11-04T06:24:39;10.10;;;4.93;;
64957;SDS011;51486;50.232;19.208;2022-11-04T06:27:05;9.77;;;4.93;;
64957;SDS011;51486;50.232;19.208;2022-11-04T06:29:31;8.07;;;4.70;;
64957;SDS011;51486;50.232;19.208;2022-11-04T06:31:56;9.50;;;4.63;;
64957;SDS011;51486;50.232;19.208;2022-11-04T06:34:22;9.27;;;4.63;;
64957;SDS011;51486;50.232;19.208;2022-11-04T06:36:47;10.87;;;3.93;;
64957;SDS011;51486;50.232;19.208;2022-11-04T06:39:13;6.53;;;3.43;;
64957;SDS011;51486;50.232;19.208;2022-11-04T06:41:39;8.07;;;4.77;;
64957;SDS011;51486;50.232;19.208;2022-11-04T06:44:04;8.53;;;3.73;;
64957;SDS011;51486;50.232;19.208;2022-11-04T06:49:03;10.00;;;4.90;;
64957;SDS011;51486;50.232;19.208;2022-11-04T06:51:29;17.03;;;5.07;;
64957;SDS011;51486;50.232;19.208;2022-11-04T06:53:55;10.53;;;4.83;;
64957;SDS011;51486;50.232;19.208;2022-11-04T06:56:20;6.93;;;3.50;;
64957;SDS011;51486;50.232;19.208;2022-11-04T06:58:46;11.30;;;4.43;;
64957;SDS011;51486;50.232;19.208;2022-11-04T07:01:16;15.10;;;4.27;;
64957;SDS011;51486;50.232;19.208;2022-11-04T07:03:43;6.40;;;3.20;;
64957;SDS011;51486;50.232;19.208;2022-11-04T07:06:09;5.93;;;3.77;;
64957;SDS011;51486;50.232;19.208;2022-11-04T07:08:35;7.93;;;3.33;;
64957;SDS011;51486;50.232;19.208;2022-11-04T07:11:01;6.97;;;3.53;;
64957;SDS011;51486;50.232;19.208;2022-11-04T07:13:26;4.13;;;2.87;;
64957;SDS011;51486;50.232;19.208;2022-11-04T07:15:52;14.27;;;3.50;;
64957;SDS011;51486;50.232;19.208;2022-11-04T07:18:17;12.43;;;4.13;;
64957;SDS011;51486;50.232;19.208;2022-11-04T07:20:43;11.13;;;4.03;;
64957;SDS011;51486;50.232;19.208;2022-11-04T07:23:08;5.80;;;3.30;;
64957;SDS011;51486;50.232;19.208;2022-11-04T07:25:33;7.93;;;3.70;;
64957;SDS011;51486;50.232;19.208;2022-11-04T07:27:59;6.67;;;3.60;;
64957;SDS011;51486;50.232;19.208;2022-11-04T07:30:25;12.60;;;3.37;;
64957;SDS011;51486;50.232;19.208;2022-11-04T07:32:51;6.03;;;2.77;;
64957;SDS011;51486;50.232;19.208;2022-11-04T07:35:17;9.30;;;3.37;;
64957;SDS011;51486;50.232;19.208;2022-11-04T07:37:42;7.87;;;3.67;;
64957;SDS011;51486;50.232;19.208;2022-11-04T07:40:08;6.93;;;3.70;;
64957;SDS011;51486;50.232;19.208;2022-11-04T07:42:34;11.03;;;4.03;;
64957;SDS011;51486;50.232;19.208;2022-11-04T07:44:59;7.03;;;3.60;;
64957;SDS011;51486;50.232;19.208;2022-11-04T07:47:27;7.87;;;3.60;;
64957;SDS011;51486;50.232;19.208;2022-11-04T07:49:53;6.07;;;3.20;;
64957;SDS011;51486;50.232;19.208;2022-11-04T07:52:19;8.73;;;3.80;;
64957;SDS011;51486;50.232;19.208;2022-11-04T07:54:44;5.10;;;2.97;;
64957;SDS011;51486;50.232;19.208;2022-11-04T07:57:09;5.27;;;2.87;;
64957;SDS011;51486;50.232;19.208;2022-11-04T07:59:35;6.37;;;3.77;;
64957;SDS011;51486;50.232;19.208;2022-11-04T08:02:00;8.50;;;3.77;;
64957;SDS011;51486;50.232;19.208;2022-11-04T08:04:26;6.63;;;3.83;;
64957;SDS011;51486;50.232;19.208;2022-11-04T08:06:51;5.87;;;3.47;;
64957;SDS011;51486;50.232;19.208;2022-11-04T08:09:17;6.33;;;2.97;;
64957;SDS011;51486;50.232;19.208;2022-11-04T08:11:42;12.67;;;4.17;;
64957;SDS011;51486;50.232;19.208;2022-11-04T08:14:08;7.40;;;4.00;;
64957;SDS011;51486;50.232;19.208;2022-11-04T08:16:34;10.00;;;4.87;;
64957;SDS011;51486;50.232;19.208;2022-11-04T08:18:59;10.80;;;4.60;;
64957;SDS011;51486;50.232;19.208;2022-11-04T08:21:25;10.37;;;4.77;;
64957;SDS011;51486;50.232;19.208;2022-11-04T08:23:51;6.97;;;3.90;;
64957;SDS011;51486;50.232;19.208;2022-11-04T08:26:17;8.93;;;4.30;;
64957;SDS011;51486;50.232;19.208;2022-11-04T08:28:44;9.03;;;4.37;;
64957;SDS011;51486;50.232;19.208;2022-11-04T08:31:11;19.83;;;4.53;;
64957;SDS011;51486;50.232;19.208;2022-11-04T08:33:39;9.50;;;4.07;;
64957;SDS011;51486;50.232;19.208;2022-11-04T08:36:09;6.87;;;3.47;;
64957;SDS011;51486;50.232;19.208;2022-11-04T08:38:36;10.13;;;3.97;;
64957;SDS011;51486;50.232;19.208;2022-11-04T08:41:03;7.87;;;4.07;;
64957;SDS011;51486;50.232;19.208;2022-11-04T08:43:30;10.80;;;4.20;;
64957;SDS011;51486;50.232;19.208;2022-11-04T08:45:56;7.43;;;3.73;;
64957;SDS011;51486;50.232;19.208;2022-11-04T08:48:22;6.13;;;3.87;;
64957;SDS011;51486;50.232;19.208;2022-11-04T08:50:48;12.20;;;4.70;;
64957;SDS011;51486;50.232;19.208;2022-11-04T08:53:15;8.27;;;3.77;;
64957;SDS011;51486;50.232;19.208;2022-11-04T08:55:40;15.03;;;4.60;;
64957;SDS011;51486;50.232;19.208;2022-11-04T08:58:06;7.30;;;3.93;;
64957;SDS011;51486;50.232;19.208;2022-11-04T09:00:31;9.07;;;3.07;;
64957;SDS011;51486;50.232;19.208;2022-11-04T09:02:57;9.57;;;3.37;;
64957;SDS011;51486;50.232;19.208;2022-11-04T09:05:23;8.57;;;4.47;;
64957;SDS011;51486;50.232;19.208;2022-11-04T09:07:48;11.20;;;3.90;;
64957;SDS011;51486;50.232;19.208;2022-11-04T09:10:14;7.07;;;4.00;;
64957;SDS011;51486;50.232;19.208;2022-11-04T09:12:40;11.60;;;3.70;;
64957;SDS011;51486;50.232;19.208;2022-11-04T09:15:06;9.27;;;3.80;;
64957;SDS011;51486;50.232;19.208;2022-11-04T09:17:32;8.70;;;3.93;;
64957;SDS011;51486;50.232;19.208;2022-11-04T09:19:58;11.27;;;4.47;;
64957;SDS011;51486;50.232;19.208;2022-11-04T09:22:23;18.33;;;3.67;;
64957;SDS011;51486;50.232;19.208;2022-11-04T09:24:48;9.07;;;3.50;;
64957;SDS011;51486;50.232;19.208;2022-11-04T09:27:14;7.20;;;3.37;;
64957;SDS011;51486;50.232;19.208;2022-11-04T09:29:39;9.30;;;3.63;;
64957;SDS011;51486;50.232;19.208;2022-11-04T09:32:05;5.90;;;3.37;;
64957;SDS011;51486;50.232;19.208;2022-11-04T09:34:31;6.63;;;3.63;;
64957;SDS011;51486;50.232;19.208;2022-11-04T09:36:57;6.40;;;2.97;;
64957;SDS011;51486;50.232;19.208;2022-11-04T09:39:23;7.80;;;3.57;;
64957;SDS011;51486;50.232;19.208;2022-11-04T09:45:02;6.10;;;3.10;;
64957;SDS011;51486;50.232;19.208;2022-11-04T09:47:33;4.57;;;2.30;;
64957;SDS011;51486;50.232;19.208;2022-11-04T09:50:00;9.20;;;2.87;;
64957;SDS011;51486;50.232;19.208;2022-11-04T09:52:30;5.17;;;2.80;;
64957;SDS011;51486;50.232;19.208;2022-11-04T09:57:41;6.93;;;3.30;;
64957;SDS011;51486;50.232;19.208;2022-11-04T10:00:13;4.77;;;2.77;;
64957;SDS011;51486;50.232;19.208;2022-11-04T10:03:02;3.90;;;2.53;;
64957;SDS011;51486;50.232;19.208;2022-11-04T10:16:17;7.47;;;3.07;;
64957;SDS011;51486;50.232;19.208;2022-11-04T10:19:54;5.87;;;3.20;;
64957;SDS011;51486;50.232;19.208;2022-11-04T10:22:00;3.73;;;2.70;;
64957;SDS011;51486;50.232;19.208;2022-11-04T10:27:03;7.77;;;3.30;;
64957;SDS011;51486;50.232;19.208;2022-11-04T10:32:04;6.60;;;2.67;;
64957;SDS011;51486;50.232;19.208;2022-11-04T10:34:53;7.20;;;3.33;;
64957;SDS011;51486;50.232;19.208;2022-11-04T10:37:26;5.37;;;2.90;;
64957;SDS011;51486;50.232;19.208;2022-11-04T10:39:52;6.67;;;2.77;;
64957;SDS011;51486;50.232;19.208;2022-11-04T10:42:24;6.27;;;2.70;;
64957;SDS011;51486;50.232;19.208;2022-11-04T10:44:50;9.67;;;2.60;;
64957;SDS011;51486;50.232;19.208;2022-11-04T10:47:29;4.90;;;3.30;;
64957;SDS011;51486;50.232;19.208;2022-11-04T10:52:36;8.73;;;3.03;;
64957;SDS011;51486;50.232;19.208;2022-11-04T10:55:04;10.33;;;3.37;;
64957;SDS011;51486;50.232;19.208;2022-11-04T10:57:42;4.57;;;2.57;;
64957;SDS011;51486;50.232;19.208;2022-11-04T11:00:07;6.63;;;3.20;;
64957;SDS011;51486;50.232;19.208;2022-11-04T11:05:20;4.53;;;2.63;;
64957;SDS011;51486;50.232;19.208;2022-11-04T11:07:50;12.80;;;3.30;;
64957;SDS011;51486;50.232;19.208;2022-11-04T11:10:25;9.57;;;4.17;;
64957;SDS011;51486;50.232;19.208;2022-11-04T11:12:56;6.60;;;3.67;;
64957;SDS011;51486;50.232;19.208;2022-11-04T11:15:27;8.93;;;4.03;;
64957;SDS011;51486;50.232;19.208;2022-11-04T11:18:00;8.30;;;4.20;;
64957;SDS011;51486;50.232;19.208;2022-11-04T11:20:37;9.53;;;4.53;;
64957;SDS011;51486;50.232;19.208;2022-11-04T11:23:05;11.97;;;4.60;;
64957;SDS011;51486;50.232;19.208;2022-11-04T11:25:50;7.13;;;4.00;;
64957;SDS011;51486;50.232;19.208;2022-11-04T11:28:20;8.03;;;3.63;;
64957;SDS011;51486;50.232;19.208;2022-11-04T11:33:17;7.37;;;3.03;;
64957;SDS011;51486;50.232;19.208;2022-11-04T11:35:50;9.43;;;3.87;;
64957;SDS011;51486;50.232;19.208;2022-11-04T11:38:22;8.07;;;3.70;;
64957;SDS011;51486;50.232;19.208;2022-11-04T11:40:51;6.83;;;3.90;;
64957;SDS011;51486;50.232;19.208;2022-11-04T11:43:23;10.07;;;3.70;;
64957;SDS011;51486;50.232;19.208;2022-11-04T11:45:51;6.00;;;2.83;;
64957;SDS011;51486;50.232;19.208;2022-11-04T11:48:28;4.73;;;3.33;;
64957;SDS011;51486;50.232;19.208;2022-11-04T11:50:56;8.20;;;3.37;;
64957;SDS011;51486;50.232;19.208;2022-11-04T11:53:24;6.70;;;3.07;;
64957;SDS011;51486;50.232;19.208;2022-11-04T11:58:59;6.17;;;3.10;;
64957;SDS011;51486;50.232;19.208;2022-11-04T12:04:38;7.80;;;3.00;;
64957;SDS011;51486;50.232;19.208;2022-11-04T12:09:55;9.37;;;3.83;;
64957;SDS011;51486;50.232;19.208;2022-11-04T12:15:28;5.07;;;2.93;;
64957;SDS011;51486;50.232;19.208;2022-11-04T12:21:24;8.93;;;2.97;;
64957;SDS011;51486;50.232;19.208;2022-11-04T12:29:40;8.40;;;3.97;;
64957;SDS011;51486;50.232;19.208;2022-11-04T12:37:18;5.93;;;3.43;;
64957;SDS011;51486;50.232;19.208;2022-11-04T12:39:55;13.93;;;4.17;;
64957;SDS011;51486;50.232;19.208;2022-11-04T12:47:46;30.27;;;5.17;;
64957;SDS011;51486;50.232;19.208;2022-11-04T12:52:49;9.43;;;4.87;;
64957;SDS011;51486;50.232;19.208;2022-11-04T12:58:06;10.20;;;4.07;;
64957;SDS011;51486;50.232;19.208;2022-11-04T13:00:43;7.30;;;4.67;;
64957;SDS011;51486;50.232;19.208;2022-11-04T13:03:31;10.47;;;4.73;;
64957;SDS011;51486;50.232;19.208;2022-11-04T13:06:04;10.20;;;4.60;;
64957;SDS011;51486;50.232;19.208;2022-11-04T13:11:32;7.77;;;4.83;;
64957;SDS011;51486;50.232;19.208;2022-11-04T13:14:17;18.00;;;4.80;;
64957;SDS011;51486;50.232;19.208;2022-11-04T13:16:53;11.63;;;5.97;;
64957;SDS011;51486;50.232;19.208;2022-11-04T13:21:53;11.47;;;5.50;;
64957;SDS011;51486;50.232;19.208;2022-11-04T13:24:27;20.33;;;5.80;;
64957;SDS011;51486;50.232;19.208;2022-11-04T13:26:59;10.27;;;4.87;;
64957;SDS011;51486;50.232;19.208;2022-11-04T13:29:27;9.97;;;4.20;;
64957;SDS011;51486;50.232;19.208;2022-11-04T13:32:07;9.33;;;4.40;;
64957;SDS011;51486;50.232;19.208;2022-11-04T13:34:49;14.27;;;4.40;;
64957;SDS011;51486;50.232;19.208;2022-11-04T13:37:55;11.43;;;4.37;;
64957;SDS011;51486;50.232;19.208;2022-11-04T13:40:23;12.57;;;4.40;;
64957;SDS011;51486;50.232;19.208;2022-11-04T13:45:56;14.67;;;4.60;;
64957;SDS011;51486;50.232;19.208;2022-11-04T13:48:22;8.77;;;3.60;;
64957;SDS011;51486;50.232;19.208;2022-11-04T13:51:09;13.20;;;5.23;;
64957;SDS011;51486;50.232;19.208;2022-11-04T13:53:40;9.50;;;4.80;;
64957;SDS011;51486;50.232;19.208;2022-11-04T13:56:08;18.47;;;6.70;;
64957;SDS011;51486;50.232;19.208;2022-11-04T13:58:34;21.87;;;6.87;;
64957;SDS011;51486;50.232;19.208;2022-11-04T14:03:54;21.07;;;8.07;;
64957;SDS011;51486;50.232;19.208;2022-11-04T14:06:51;36.13;;;7.53;;
64957;SDS011;51486;50.232;19.208;2022-11-04T14:09:23;32.33;;;9.97;;
64957;SDS011;51486;50.232;19.208;2022-11-04T14:14:36;52.10;;;18.57;;
64957;SDS011;51486;50.232;19.208;2022-11-04T14:17:02;54.30;;;20.80;;
64957;SDS011;51486;50.232;19.208;2022-11-04T14:22:28;82.43;;;30.63;;
64957;SDS011;51486;50.232;19.208;2022-11-04T14:24:56;68.57;;;27.87;;
64957;SDS011;51486;50.232;19.208;2022-11-04T14:27:24;75.30;;;33.00;;
64957;SDS011;51486;50.232;19.208;2022-11-04T14:29:58;60.80;;;27.17;;
64957;SDS011;51486;50.232;19.208;2022-11-04T14:32:25;52.90;;;23.00;;
64957;SDS011;51486;50.232;19.208;2022-11-04T14:35:04;44.50;;;18.27;;
64957;SDS011;51486;50.232;19.208;2022-11-04T14:37:32;60.90;;;22.73;;
64957;SDS011;51486;50.232;19.208;2022-11-04T14:39:59;25.47;;;11.63;;
64957;SDS011;51486;50.232;19.208;2022-11-04T14:43:11;26.57;;;11.47;;
64957;SDS011;51486;50.232;19.208;2022-11-04T14:45:27;23.53;;;10.77;;
64957;SDS011;51486;50.232;19.208;2022-11-04T14:48:16;28.13;;;10.63;;
64957;SDS011;51486;50.232;19.208;2022-11-04T14:50:44;31.53;;;11.83;;
64957;SDS011;51486;50.232;19.208;2022-11-04T14:53:33;26.13;;;12.27;;
64957;SDS011;51486;50.232;19.208;2022-11-04T14:58:35;36.33;;;12.90;;
64957;SDS011;51486;50.232;19.208;2022-11-04T15:01:01;40.60;;;14.07;;
64957;SDS011;51486;50.232;19.208;2022-11-04T15:03:35;31.60;;;12.57;;
64957;SDS011;51486;50.232;19.208;2022-11-04T15:06:03;33.57;;;13.23;;
64957;SDS011;51486;50.232;19.208;2022-11-04T15:11:22;39.93;;;15.27;;
64957;SDS011;51486;50.232;19.208;2022-11-04T15:14:29;40.50;;;15.00;;
64957;SDS011;51486;50.232;19.208;2022-11-04T15:16:54;50.43;;;19.77;;
64957;SDS011;51486;50.232;19.208;2022-11-04T15:21:54;51.90;;;25.67;;
64957;SDS011;51486;50.232;19.208;2022-11-04T15:24:20;66.23;;;23.40;;
64957;SDS011;51486;50.232;19.208;2022-11-04T15:26:52;54.80;;;21.63;;
64957;SDS011;51486;50.232;19.208;2022-11-04T15:29:20;56.27;;;19.90;;
64957;SDS011;51486;50.232;19.208;2022-11-04T15:34:20;38.73;;;14.87;;
64957;SDS011;51486;50.232;19.208;2022-11-04T15:36:47;27.80;;;12.60;;
64957;SDS011;51486;50.232;19.208;2022-11-04T15:41:59;34.93;;;12.10;;
64957;SDS011;51486;50.232;19.208;2022-11-04T15:44:46;36.30;;;13.20;;
64957;SDS011;51486;50.232;19.208;2022-11-04T15:49:43;38.37;;;11.97;;
64957;SDS011;51486;50.232;19.208;2022-11-04T15:52:20;35.50;;;13.00;;
64957;SDS011;51486;50.232;19.208;2022-11-04T15:54:51;46.27;;;13.60;;
64957;SDS011;51486;50.232;19.208;2022-11-04T15:57:23;42.20;;;15.07;;
64957;SDS011;51486;50.232;19.208;2022-11-04T15:59:58;29.87;;;12.43;;
64957;SDS011;51486;50.232;19.208;2022-11-04T16:02:29;26.30;;;11.73;;
64957;SDS011;51486;50.232;19.208;2022-11-04T16:07:44;29.97;;;12.47;;
64957;SDS011;51486;50.232;19.208;2022-11-04T16:10:28;27.70;;;12.13;;
64957;SDS011;51486;50.232;19.208;2022-11-04T16:12:58;29.70;;;12.37;;
64957;SDS011;51486;50.232;19.208;2022-11-04T16:15:37;24.60;;;9.80;;
64957;SDS011;51486;50.232;19.208;2022-11-04T16:18:16;37.73;;;14.60;;
64957;SDS011;51486;50.232;19.208;2022-11-04T16:20:57;44.47;;;19.33;;
64957;SDS011;51486;50.232;19.208;2022-11-04T16:23:25;80.13;;;29.23;;
64957;SDS011;51486;50.232;19.208;2022-11-04T16:25:55;102.27;;;37.17;;
64957;SDS011;51486;50.232;19.208;2022-11-04T16:28:21;75.70;;;29.77;;
64957;SDS011;51486;50.232;19.208;2022-11-04T16:31:04;51.47;;;20.23;;
64957;SDS011;51486;50.232;19.208;2022-11-04T16:33:31;37.50;;;17.27;;
64957;SDS011;51486;50.232;19.208;2022-11-04T16:35:56;40.53;;;18.10;;
64957;SDS011;51486;50.232;19.208;2022-11-04T16:38:22;41.90;;;17.63;;
64957;SDS011;51486;50.232;19.208;2022-11-04T16:40:48;57.83;;;19.63;;
64957;SDS011;51486;50.232;19.208;2022-11-04T16:43:17;40.70;;;15.47;;
64957;SDS011;51486;50.232;19.208;2022-11-04T16:45:45;43.27;;;16.40;;
64957;SDS011;51486;50.232;19.208;2022-11-04T16:48:15;39.37;;;14.70;;
64957;SDS011;51486;50.232;19.208;2022-11-04T16:50:41;51.20;;;17.07;;
64957;SDS011;51486;50.232;19.208;2022-11-04T16:53:07;54.93;;;21.67;;